createdAt,value
2023-02-04T00:01:18.284Z,52.40
2023-02-04T00:03:44.833Z,47.20
2023-02-04T00:06:11.867Z,35.00
2023-02-04T00:08:38.440Z,35.40
2023-02-04T00:11:05.256Z,28.60
2023-02-04T00:13:31.915Z,19.20
2023-02-04T00:15:58.683Z,20.00
2023-02-04T00:18:25.264Z,22.30
2023-02-04T00:20:52.431Z,18.30
2023-02-04T00:23:20.150Z,15.60
2023-02-04T00:25:47.185Z,21.90
2023-02-04T00:28:13.754Z,21.10
2023-02-04T00:30:40.618Z,24.30
2023-02-04T00:33:08.729Z,26.50
2023-02-04T00:35:38.822Z,25.30
2023-02-04T00:38:06.128Z,23.00
2023-02-04T00:40:33.099Z,24.70
2023-02-04T00:42:59.827Z,26.90
2023-02-04T00:45:26.235Z,25.80
2023-02-04T00:47:53.019Z,30.00
2023-02-04T00:50:19.522Z,25.10
2023-02-04T00:52:46.805Z,27.30
2023-02-04T00:55:14.984Z,19.70
2023-02-04T00:57:41.796Z,21.20
2023-02-04T01:00:09.454Z,24.10
2023-02-04T01:02:36.505Z,21.30
2023-02-04T01:05:03.248Z,19.60
2023-02-04T01:07:32.405Z,22.80
2023-02-04T01:09:59.678Z,23.50
2023-02-04T01:12:28.016Z,18.20
2023-02-04T01:14:54.918Z,28.20
2023-02-04T01:17:21.446Z,25.40
2023-02-04T01:19:47.953Z,24.90
2023-02-04T01:22:14.469Z,26.70
2023-02-04T01:24:41.247Z,25.30
2023-02-04T01:27:26.260Z,28.70
2023-02-04T01:29:52.765Z,32.70
2023-02-04T01:32:19.289Z,25.00
2023-02-04T01:34:45.793Z,22.40
2023-02-04T01:37:12.317Z,21.30
2023-02-04T01:39:38.751Z,20.90
2023-02-04T01:42:05.318Z,24.80
2023-02-04T01:44:32.136Z,29.90
2023-02-04T01:46:58.674Z,35.80
2023-02-04T01:49:25.372Z,33.70
2023-02-04T01:51:51.912Z,33.40
2023-02-04T01:54:20.234Z,37.50
2023-02-04T01:56:48.564Z,33.60
2023-02-04T01:59:15.703Z,32.50
2023-02-04T02:01:46.911Z,30.00
2023-02-04T02:04:15.220Z,27.20
2023-02-04T02:06:48.405Z,23.50
2023-02-04T02:09:15.225Z,28.20
2023-02-04T02:11:43.868Z,35.60
2023-02-04T02:14:10.927Z,28.10
2023-02-04T02:16:37.448Z,37.50
2023-02-04T02:19:04.693Z,38.20
2023-02-04T02:21:43.927Z,33.00
2023-02-04T02:24:30.225Z,36.60
2023-02-04T02:26:57.682Z,30.00
2023-02-04T02:29:25.107Z,33.70
2023-02-04T02:31:52.193Z,28.10
2023-02-04T02:34:19.191Z,35.40
2023-02-04T02:36:45.872Z,36.80
2023-02-04T02:39:13.197Z,45.60
2023-02-04T02:41:40.594Z,62.70
2023-02-04T02:44:08.076Z,72.80
2023-02-04T02:46:38.845Z,70.40
2023-02-04T02:49:05.856Z,77.60
2023-02-04T02:51:32.896Z,71.80
2023-02-04T02:53:59.462Z,64.20
2023-02-04T02:56:27.131Z,49.80
2023-02-04T02:58:53.845Z,40.90
2023-02-04T03:01:23.414Z,41.40
2023-02-04T03:03:51.326Z,44.20
2023-02-04T03:06:22.955Z,44.80
2023-02-04T03:08:51.086Z,45.90
2023-02-04T03:11:21.359Z,39.00
2023-02-04T03:13:48.475Z,34.80
2023-02-04T03:16:14.989Z,35.30
2023-02-04T03:18:41.821Z,31.90
2023-02-04T03:21:11.321Z,30.70
2023-02-04T03:23:38.185Z,29.80
2023-02-04T03:26:05.319Z,29.10
2023-02-04T03:28:32.876Z,25.00
2023-02-04T03:30:59.603Z,28.10
2023-02-04T03:33:30.665Z,29.30
2023-02-04T03:35:58.080Z,32.90
2023-02-04T03:38:24.672Z,29.20
2023-02-04T03:40:51.172Z,36.10
2023-02-04T03:43:18.281Z,32.70
2023-02-04T03:45:45.938Z,33.10
2023-02-04T03:48:12.908Z,35.20
2023-02-04T03:50:39.537Z,29.70
2023-02-04T03:53:06.480Z,26.00
2023-02-04T03:55:33.009Z,24.30
2023-02-04T03:58:00.154Z,21.90
2023-02-04T04:00:26.792Z,25.80
2023-02-04T04:02:54.763Z,30.60
2023-02-04T04:05:21.508Z,30.40
2023-02-04T04:07:48.805Z,30.30
2023-02-04T04:10:15.661Z,33.80
2023-02-04T04:12:42.324Z,32.80
2023-02-04T04:15:09.234Z,32.00
2023-02-04T04:17:35.788Z,29.50
2023-02-04T04:20:02.518Z,33.80
2023-02-04T04:22:29.722Z,27.70
2023-02-04T04:24:56.225Z,27.30
2023-02-04T04:27:22.985Z,21.50
2023-02-04T04:29:51.755Z,29.30
2023-02-04T04:32:18.515Z,28.70
2023-02-04T04:34:45.176Z,22.60
2023-02-04T04:37:11.785Z,26.10
2023-02-04T04:39:38.283Z,30.10
2023-02-04T04:42:04.837Z,26.90
2023-02-04T04:44:32.131Z,32.90
2023-02-04T04:46:59.162Z,31.60
2023-02-04T04:49:26.081Z,29.60
2023-02-04T04:51:52.862Z,30.50
2023-02-04T04:54:19.283Z,24.10
2023-02-04T04:56:46.567Z,25.20
2023-02-04T04:59:13.166Z,26.30
2023-02-04T05:01:39.619Z,25.90
2023-02-04T05:04:06.062Z,23.40
2023-02-04T05:06:32.702Z,30.20
2023-02-04T05:08:59.493Z,32.80
2023-02-04T05:11:26.082Z,32.00
2023-02-04T05:13:52.649Z,31.30
2023-02-04T05:16:19.170Z,27.20
2023-02-04T05:18:46.072Z,27.50
2023-02-04T05:21:12.701Z,25.90
2023-02-04T05:23:39.155Z,24.90
2023-02-04T05:26:05.898Z,21.30
2023-02-04T05:28:32.847Z,20.10
2023-02-04T05:30:59.434Z,18.30
2023-02-04T05:33:26.495Z,19.60
2023-02-04T05:35:53.888Z,17.50
2023-02-04T05:38:20.684Z,22.80
2023-02-04T05:40:47.147Z,32.90
2023-02-04T05:43:13.894Z,26.20
2023-02-04T05:45:42.006Z,24.80
2023-02-04T05:48:08.702Z,26.40
2023-02-04T05:50:35.143Z,26.30
2023-02-04T05:53:10.923Z,27.00
2023-02-04T05:55:41.197Z,50.90
2023-02-04T05:58:07.905Z,31.60
2023-02-04T06:00:34.606Z,23.70
2023-02-04T06:03:01.243Z,25.00
2023-02-04T06:05:27.945Z,28.50
2023-02-04T06:07:55.271Z,22.30
2023-02-04T06:10:21.948Z,26.80
2023-02-04T06:12:48.762Z,22.30
2023-02-04T06:15:15.557Z,15.50
2023-02-04T06:17:42.189Z,15.10
2023-02-04T06:20:10.513Z,82.20
2023-02-04T06:22:37.187Z,56.10
2023-02-04T06:25:04.752Z,67.20
2023-02-04T06:27:31.348Z,46.50
2023-02-04T06:29:57.883Z,42.30
2023-02-04T06:32:24.429Z,31.70
2023-02-04T06:34:50.944Z,33.10
2023-02-04T06:37:17.970Z,50.20
2023-02-04T06:39:44.519Z,33.30
2023-02-04T06:42:11.278Z,34.10
2023-02-04T06:44:37.783Z,32.80
2023-02-04T06:47:04.341Z,28.70
2023-02-04T06:49:31.092Z,24.00
2023-02-04T06:51:58.013Z,55.50
2023-02-04T06:54:24.619Z,28.60
2023-02-04T06:56:51.114Z,30.30
2023-02-04T06:59:17.639Z,27.30
2023-02-04T07:01:44.792Z,29.80
2023-02-04T07:04:11.426Z,36.60
2023-02-04T07:06:38.041Z,26.70
2023-02-04T07:09:04.869Z,30.30
2023-02-04T07:11:32.726Z,37.90
2023-02-04T07:14:00.119Z,34.50
2023-02-04T07:16:26.657Z,32.90
2023-02-04T07:18:53.329Z,34.10
2023-02-04T07:21:19.856Z,39.00
2023-02-04T07:23:46.343Z,34.30
2023-02-04T07:26:12.916Z,30.40
2023-02-04T07:28:40.638Z,25.80
2023-02-04T07:31:07.151Z,25.50
2023-02-04T07:33:34.537Z,24.20
2023-02-04T07:36:01.361Z,25.40
2023-02-04T07:38:28.266Z,26.90
2023-02-04T07:40:54.822Z,41.30
2023-02-04T07:43:21.640Z,48.70
2023-02-04T07:45:49.351Z,57.40
2023-02-04T07:48:16.261Z,47.70
2023-02-04T07:50:42.760Z,50.10
2023-02-04T07:53:10.420Z,42.90
2023-02-04T07:55:37.045Z,40.70
2023-02-04T07:58:03.877Z,33.30
2023-02-04T08:00:30.764Z,30.80
2023-02-04T08:02:57.768Z,22.90
2023-02-04T08:05:24.380Z,28.30
2023-02-04T08:07:51.098Z,20.10
2023-02-04T08:10:18.257Z,18.70
2023-02-04T08:12:46.480Z,23.50
2023-02-04T08:15:13.574Z,21.80
2023-02-04T08:17:40.264Z,24.00
2023-02-04T08:20:09.064Z,20.20
2023-02-04T08:22:37.075Z,25.50
2023-02-04T08:25:04.839Z,26.50
2023-02-04T08:27:31.534Z,25.10
2023-02-04T08:29:58.162Z,22.50
2023-02-04T08:32:26.410Z,29.50
2023-02-04T08:34:53.149Z,31.90
2023-02-04T08:37:19.812Z,42.50
2023-02-04T08:39:46.740Z,55.90
2023-02-04T08:42:13.653Z,54.90
2023-02-04T08:44:40.584Z,37.40
2023-02-04T08:47:07.216Z,39.70
2023-02-04T08:49:33.838Z,39.90
2023-02-04T08:52:02.494Z,35.10
2023-02-04T08:54:29.499Z,28.10
2023-02-04T08:56:55.993Z,32.50
2023-02-04T08:59:23.527Z,29.90
2023-02-04T09:01:51.755Z,44.00
2023-02-04T09:04:18.955Z,32.80
2023-02-04T09:06:45.683Z,28.70
2023-02-04T09:09:12.767Z,22.30
2023-02-04T09:11:39.553Z,23.00
2023-02-04T09:14:06.512Z,26.80
2023-02-04T09:16:33.111Z,22.40
2023-02-04T09:19:01.151Z,19.70
2023-02-04T09:21:27.861Z,18.20
2023-02-04T09:23:54.496Z,21.40
2023-02-04T09:26:20.978Z,18.30
2023-02-04T09:28:48.073Z,22.60
2023-02-04T09:31:15.132Z,21.50
2023-02-04T09:33:41.785Z,48.90
2023-02-04T09:36:09.995Z,24.10
2023-02-04T09:38:37.045Z,20.50
2023-02-04T09:41:05.870Z,18.30
2023-02-04T09:43:38.418Z,22.50
2023-02-04T09:46:05.105Z,23.10
2023-02-04T09:48:32.544Z,22.10
2023-02-04T09:51:06.959Z,20.60
2023-02-04T09:53:33.828Z,20.40
2023-02-04T09:56:00.481Z,20.70
2023-02-04T09:58:31.031Z,18.40
2023-02-04T10:00:59.392Z,22.10
2023-02-04T10:03:25.927Z,20.90
2023-02-04T10:05:52.531Z,18.10
2023-02-04T10:08:27.928Z,14.10
2023-02-04T10:10:55.302Z,15.90
2023-02-04T10:13:30.982Z,20.50
2023-02-04T10:15:58.123Z,21.50
2023-02-04T10:18:29.560Z,20.40
2023-02-04T10:20:57.476Z,19.70
2023-02-04T10:23:23.917Z,22.20
2023-02-04T10:25:50.580Z,36.80
2023-02-04T10:28:17.972Z,37.40
2023-02-04T10:30:46.521Z,35.60
2023-02-04T10:33:24.158Z,23.90
2023-02-04T10:35:57.390Z,35.10
2023-02-04T10:38:24.098Z,16.60
2023-02-04T10:41:02.173Z,24.80
2023-02-04T10:43:28.949Z,20.30
2023-02-04T10:46:01.103Z,27.00
2023-02-04T10:48:29.455Z,31.60
2023-02-04T10:50:56.176Z,31.60
2023-02-04T10:53:49.466Z,34.10
2023-02-04T10:56:20.280Z,24.50
2023-02-04T10:58:47.389Z,21.60
2023-02-04T11:01:15.423Z,30.40
2023-02-04T11:03:42.326Z,23.40
2023-02-04T11:06:15.558Z,21.00
2023-02-04T11:08:45.359Z,19.70
2023-02-04T11:11:20.650Z,14.50
2023-02-04T11:13:50.281Z,17.30
2023-02-04T11:16:16.929Z,35.60
2023-02-04T11:18:45.186Z,31.50
2023-02-04T11:21:33.547Z,15.40
2023-02-04T11:24:15.604Z,26.30
2023-02-04T11:26:51.594Z,17.10
2023-02-04T11:29:33.878Z,14.00
2023-02-04T11:32:02.728Z,17.50
2023-02-04T11:34:30.392Z,17.70
2023-02-04T11:37:05.251Z,13.30
2023-02-04T11:39:33.871Z,17.90
2023-02-04T11:42:00.520Z,21.80
2023-02-04T11:44:27.135Z,27.40
2023-02-04T11:46:57.716Z,24.20
2023-02-04T11:49:25.606Z,44.10
2023-02-04T11:52:03.397Z,97.90
2023-02-04T11:54:30.770Z,67.20
2023-02-04T11:56:58.869Z,57.70
2023-02-04T11:59:25.526Z,32.00
2023-02-04T12:02:03.359Z,17.60
2023-02-04T12:04:29.936Z,19.50
2023-02-04T12:07:02.622Z,20.60
2023-02-04T12:09:32.616Z,28.60
2023-02-04T12:12:00.892Z,18.60
2023-02-04T12:14:37.692Z,25.00
2023-02-04T12:17:17.678Z,27.70
2023-02-04T12:19:46.656Z,28.20
2023-02-04T12:22:14.976Z,32.10
2023-02-04T12:24:42.208Z,22.90
2023-02-04T12:27:08.713Z,27.30
2023-02-04T12:29:35.491Z,27.80
2023-02-04T12:32:01.996Z,38.50
2023-02-04T12:34:29.062Z,46.00
2023-02-04T12:36:55.593Z,35.10
2023-02-04T12:39:22.306Z,33.40
2023-02-04T12:41:48.914Z,36.30
2023-02-04T12:44:16.765Z,34.20
2023-02-04T12:46:43.376Z,32.20
2023-02-04T12:49:10.210Z,26.10
2023-02-04T12:51:36.831Z,27.30
2023-02-04T12:54:03.674Z,27.40
2023-02-04T12:56:30.567Z,21.60
2023-02-04T12:58:57.253Z,18.00
2023-02-04T13:01:23.869Z,21.00
2023-02-04T13:03:50.335Z,22.00
2023-02-04T13:06:16.920Z,29.10
2023-02-04T13:08:43.398Z,23.00
2023-02-04T13:11:10.029Z,24.30
2023-02-04T13:13:38.713Z,20.50
2023-02-04T13:16:05.409Z,21.20
2023-02-04T13:18:33.335Z,31.00
2023-02-04T13:20:59.951Z,21.50
2023-02-04T13:23:26.560Z,24.20
2023-02-04T13:25:53.289Z,19.40
2023-02-04T13:28:20.368Z,21.20
2023-02-04T13:30:46.999Z,15.90
2023-02-04T13:33:14.032Z,21.70
2023-02-04T13:35:40.718Z,18.70
2023-02-04T13:38:07.433Z,49.10
2023-02-04T16:02:30.339Z,72.50
2023-02-04T16:04:58.756Z,31.60
2023-02-04T16:07:26.580Z,33.10
2023-02-04T16:09:54.779Z,52.80
2023-02-04T16:12:22.890Z,48.00
2023-02-04T16:14:51.096Z,48.20
2023-02-04T16:17:19.349Z,43.00
2023-02-04T16:19:47.336Z,53.80
2023-02-04T16:22:15.528Z,40.70
2023-02-04T16:24:43.626Z,29.60
2023-02-04T16:27:11.547Z,32.30
2023-02-04T16:29:39.499Z,35.10
2023-02-04T16:32:07.392Z,44.10
2023-02-04T16:34:36.162Z,43.80
2023-02-04T16:37:04.062Z,32.00
2023-02-04T16:39:32.281Z,46.50
2023-02-04T16:42:00.186Z,34.80
2023-02-04T16:44:28.153Z,43.10
2023-02-04T16:46:56.355Z,44.30
2023-02-04T16:49:26.468Z,32.30
2023-02-04T16:51:54.359Z,32.50
2023-02-04T16:54:22.598Z,26.50
2023-02-04T16:56:50.428Z,31.90
2023-02-04T16:59:18.295Z,36.30
2023-02-04T17:01:47.304Z,27.70
2023-02-04T17:04:15.284Z,27.80
2023-02-04T17:06:43.262Z,33.20
2023-02-04T17:09:11.226Z,40.20
2023-02-04T17:11:39.141Z,27.80
2023-02-04T17:14:15.617Z,40.10
2023-02-04T17:16:47.407Z,46.40
2023-02-04T17:19:17.525Z,38.30
2023-02-04T17:21:45.568Z,46.40
2023-02-04T17:24:13.798Z,38.00
2023-02-04T17:26:41.920Z,47.50
2023-02-04T17:29:12.313Z,37.50
2023-02-04T17:31:42.798Z,56.00
2023-02-04T17:34:10.847Z,42.50
2023-02-04T17:36:39.021Z,47.90
2023-02-04T17:39:07.676Z,36.80
2023-02-04T17:41:35.622Z,39.70
2023-02-04T17:44:03.610Z,44.80
2023-02-04T17:46:31.875Z,35.20
2023-02-04T17:48:59.820Z,35.50
2023-02-04T17:51:27.694Z,131.10
2023-02-04T17:53:55.750Z,107.80
2023-02-04T17:56:24.545Z,89.30
2023-02-04T17:58:52.465Z,76.60
2023-02-04T18:01:22.033Z,64.60
2023-02-04T18:03:50.376Z,58.50
2023-02-04T18:06:27.199Z,47.90
2023-02-04T18:09:01.857Z,42.40
2023-02-04T18:11:35.830Z,45.60
2023-02-04T18:14:16.937Z,47.40
2023-02-04T18:16:45.437Z,41.40
2023-02-04T18:19:30.180Z,42.50
2023-02-04T18:21:58.509Z,41.00
2023-02-04T18:24:30.304Z,58.30
2023-02-04T18:27:04.621Z,47.90
2023-02-04T18:29:36.647Z,43.00
2023-02-04T18:32:21.385Z,40.00
2023-02-04T18:34:55.237Z,42.10
2023-02-04T18:37:27.420Z,32.30
2023-02-04T18:40:10.415Z,49.90
2023-02-04T18:42:43.573Z,42.30
2023-02-04T18:45:31.371Z,41.70
2023-02-04T18:48:01.307Z,25.50
2023-02-04T18:50:34.440Z,31.40
2023-02-04T18:53:12.433Z,37.30
2023-02-04T18:55:40.787Z,35.00
2023-02-04T18:58:18.451Z,38.90
2023-02-04T19:00:52.332Z,34.10
2023-02-04T19:03:25.388Z,41.90
2023-02-04T19:05:54.872Z,75.90
2023-02-04T19:08:27.283Z,67.90
2023-02-04T19:10:59.032Z,40.00
2023-02-04T19:16:23.381Z,61.10
2023-02-04T19:18:53.222Z,58.40
2023-02-04T19:21:25.838Z,51.20
2023-02-04T19:24:08.205Z,157.50
2023-02-04T19:26:40.413Z,152.30
2023-02-04T19:29:38.988Z,62.30
2023-02-04T19:32:22.081Z,107.80
2023-02-04T19:34:51.858Z,77.20
2023-02-04T19:37:24.591Z,57.30
2023-02-04T19:39:53.577Z,68.00
2023-02-04T19:42:27.168Z,147.10
2023-02-04T19:44:57.171Z,85.60
2023-02-04T19:47:26.086Z,39.50
2023-02-04T19:50:01.866Z,27.30
2023-02-04T19:52:35.086Z,24.90
2023-02-04T19:55:18.079Z,27.80
2023-02-04T19:57:48.930Z,26.90
2023-02-04T20:00:36.049Z,24.10
2023-02-04T20:03:12.845Z,21.20
2023-02-04T20:05:41.129Z,42.70
2023-02-04T20:08:39.654Z,34.70
2023-02-04T20:11:33.839Z,28.70
2023-02-04T20:14:12.419Z,24.20
2023-02-04T20:16:46.660Z,24.90
2023-02-04T20:19:25.745Z,20.30
2023-02-04T20:22:13.368Z,21.00
2023-02-04T20:24:41.786Z,23.50
2023-02-04T20:27:26.672Z,19.10
2023-02-04T20:30:11.635Z,20.70
2023-02-04T20:32:41.434Z,35.80
2023-02-04T20:35:09.199Z,45.10
2023-02-04T20:37:37.650Z,32.00
2023-02-04T20:40:20.730Z,50.50
2023-02-04T20:42:52.657Z,127.10
2023-02-04T20:45:27.808Z,27.80
2023-02-04T20:48:15.973Z,25.80
2023-02-04T20:50:47.386Z,30.50
2023-02-04T20:53:29.726Z,30.70
2023-02-04T20:56:03.993Z,27.70
2023-02-04T20:58:39.460Z,40.80
2023-02-04T21:01:25.800Z,21.50
2023-02-04T21:03:53.902Z,25.20
2023-02-04T21:06:27.861Z,27.20
2023-02-04T21:08:56.840Z,19.30
2023-02-04T21:11:24.930Z,19.80
2023-02-04T21:13:53.493Z,20.60
2023-02-04T21:16:21.720Z,26.30
2023-02-04T21:18:50.749Z,31.90
2023-02-04T21:21:20.345Z,44.30
2023-02-04T21:23:50.407Z,29.50
2023-02-04T21:26:18.358Z,31.00
2023-02-04T21:28:46.217Z,24.20
2023-02-04T21:31:14.605Z,16.30
2023-02-04T21:33:42.586Z,17.10
2023-02-04T21:36:10.482Z,15.60
2023-02-04T21:38:38.488Z,13.80
2023-02-04T21:41:06.963Z,20.20
2023-02-04T21:43:35.064Z,23.20
2023-02-04T21:46:03.024Z,29.00
2023-02-04T21:48:31.587Z,36.70
2023-02-04T21:51:00.160Z,22.60
2023-02-04T21:53:28.124Z,29.00
2023-02-04T21:55:58.448Z,24.10
2023-02-04T21:58:27.302Z,17.60
2023-02-04T22:00:55.158Z,21.60
2023-02-04T22:03:23.011Z,18.90
2023-02-04T22:05:50.888Z,19.50
2023-02-04T22:08:18.712Z,18.00
2023-02-04T22:10:46.933Z,15.00
2023-02-04T22:13:29.808Z,15.80
2023-02-04T22:15:57.642Z,12.70
2023-02-04T22:18:25.475Z,11.40
2023-02-04T22:20:53.764Z,11.30
2023-02-04T22:23:21.910Z,14.50
2023-02-04T22:25:49.797Z,13.50
2023-02-04T22:28:17.724Z,13.30
2023-02-04T22:30:46.103Z,15.90
2023-02-04T22:33:14.185Z,14.80
2023-02-04T22:35:42.163Z,18.70
2023-02-04T22:38:09.963Z,14.90
2023-02-04T22:40:37.798Z,11.10
2023-02-04T22:43:05.952Z,13.50
2023-02-04T22:45:34.022Z,9.90
2023-02-04T22:48:02.187Z,12.20
2023-02-04T22:50:30.349Z,11.30
2023-02-04T22:52:58.303Z,12.60
2023-02-04T22:55:26.950Z,10.00
2023-02-04T22:57:55.149Z,11.20
2023-02-04T23:00:23.067Z,9.40
2023-02-04T23:02:51.320Z,9.30
2023-02-04T23:05:19.192Z,12.20
2023-02-04T23:07:47.674Z,8.30
2023-02-04T23:10:16.000Z,8.90
2023-02-04T23:13:03.959Z,10.20
2023-02-04T23:15:32.802Z,7.10
2023-02-04T23:18:00.946Z,6.20
2023-02-04T23:20:28.960Z,8.20
2023-02-04T23:22:56.894Z,7.90
2023-02-04T23:25:24.801Z,9.30
2023-02-04T23:27:52.897Z,10.30
2023-02-04T23:30:22.147Z,9.80
2023-02-04T23:32:50.852Z,9.80
2023-02-04T23:35:18.731Z,9.50
2023-02-04T23:37:46.682Z,8.40
2023-02-04T23:40:14.663Z,9.20
2023-02-04T23:42:43.608Z,9.30
2023-02-04T23:45:11.603Z,8.10
2023-02-04T23:47:39.621Z,8.10
2023-02-04T23:50:08.026Z,8.40
2023-02-04T23:52:36.588Z,8.40
2023-02-04T23:55:05.302Z,12.10
2023-02-04T23:57:33.230Z,11.30
